sensor_id;sensor_type;location;lat;lon;timestamp;P1;durP1;ratioP1;P2;durP2;ratioP2
42616;SDS011;28250;52.320;0.360;2023-05-02T00:02:17;5.75;;;2.40;;
42616;SDS011;28250;52.320;0.360;2023-05-02T00:04:43;11.77;;;2.95;;
42616;SDS011;28250;52.320;0.360;2023-05-02T00:07:09;8.60;;;2.40;;
42616;SDS011;28250;52.320;0.360;2023-05-02T00:09:36;5.63;;;2.53;;
42616;SDS011;28250;52.320;0.360;2023-05-02T00:12:02;8.70;;;2.85;;
42616;SDS011;28250;52.320;0.360;2023-05-02T00:14:28;8.38;;;2.90;;
42616;SDS011;28250;52.320;0.360;2023-05-02T00:16:54;5.78;;;2.45;;
42616;SDS011;28250;52.320;0.360;2023-05-02T00:19:21;5.95;;;2.42;;
42616;SDS011;28250;52.320;0.360;2023-05-02T00:21:47;4.85;;;2.40;;
42616;SDS011;28250;52.320;0.360;2023-05-02T00:24:14;4.50;;;2.72;;
42616;SDS011;28250;52.320;0.360;2023-05-02T00:26:42;5.00;;;2.15;;
42616;SDS011;28250;52.320;0.360;2023-05-02T00:29:07;5.35;;;2.10;;
42616;SDS011;28250;52.320;0.360;2023-05-02T00:31:33;7.22;;;2.38;;
42616;SDS011;28250;52.320;0.360;2023-05-02T00:34:00;2.67;;;2.10;;
42616;SDS011;28250;52.320;0.360;2023-05-02T00:36:26;6.50;;;2.42;;
42616;SDS011;28250;52.320;0.360;2023-05-02T00:38:52;5.00;;;2.45;;
42616;SDS011;28250;52.320;0.360;2023-05-02T00:41:18;7.25;;;2.28;;
42616;SDS011;28250;52.320;0.360;2023-05-02T00:43:47;5.20;;;2.30;;
42616;SDS011;28250;52.320;0.360;2023-05-02T00:46:13;5.75;;;2.70;;
42616;SDS011;28250;52.320;0.360;2023-05-02T00:48:39;5.07;;;2.22;;
42616;SDS011;28250;52.320;0.360;2023-05-02T00:51:05;6.72;;;2.17;;
42616;SDS011;28250;52.320;0.360;2023-05-02T00:53:34;4.30;;;2.38;;
42616;SDS011;28250;52.320;0.360;2023-05-02T00:58:26;6.82;;;2.13;;
42616;SDS011;28250;52.320;0.360;2023-05-02T01:04:09;6.32;;;2.08;;
42616;SDS011;28250;52.320;0.360;2023-05-02T01:07:09;7.90;;;2.50;;
42616;SDS011;28250;52.320;0.360;2023-05-02T01:10:45;6.03;;;2.22;;
42616;SDS011;28250;52.320;0.360;2023-05-02T01:15:43;6.38;;;2.17;;
42616;SDS011;28250;52.320;0.360;2023-05-02T01:18:11;5.10;;;2.47;;
42616;SDS011;28250;52.320;0.360;2023-05-02T01:20:41;9.10;;;2.70;;
42616;SDS011;28250;52.320;0.360;2023-05-02T01:23:12;10.68;;;2.83;;
42616;SDS011;28250;52.320;0.360;2023-05-02T01:26:05;4.18;;;2.58;;
42616;SDS011;28250;52.320;0.360;2023-05-02T01:29:10;8.02;;;3.90;;
42616;SDS011;28250;52.320;0.360;2023-05-02T01:31:41;6.22;;;2.95;;
42616;SDS011;28250;52.320;0.360;2023-05-02T01:34:10;9.50;;;3.30;;
42616;SDS011;28250;52.320;0.360;2023-05-02T01:36:38;9.90;;;3.67;;
42616;SDS011;28250;52.320;0.360;2023-05-02T01:39:12;6.80;;;3.45;;
42616;SDS011;28250;52.320;0.360;2023-05-02T01:41:43;6.25;;;3.22;;
42616;SDS011;28250;52.320;0.360;2023-05-02T01:44:11;11.73;;;3.92;;
42616;SDS011;28250;52.320;0.360;2023-05-02T01:46:41;9.23;;;3.00;;
42616;SDS011;28250;52.320;0.360;2023-05-02T01:49:08;7.43;;;2.95;;
42616;SDS011;28250;52.320;0.360;2023-05-02T01:54:08;7.85;;;3.08;;
42616;SDS011;28250;52.320;0.360;2023-05-02T01:56:37;10.07;;;3.10;;
42616;SDS011;28250;52.320;0.360;2023-05-02T01:59:05;10.50;;;3.20;;
42616;SDS011;28250;52.320;0.360;2023-05-02T02:01:38;7.85;;;2.70;;
42616;SDS011;28250;52.320;0.360;2023-05-02T02:04:06;8.65;;;2.97;;
42616;SDS011;28250;52.320;0.360;2023-05-02T02:06:35;7.78;;;2.75;;
42616;SDS011;28250;52.320;0.360;2023-05-02T02:09:01;8.85;;;2.92;;
42616;SDS011;28250;52.320;0.360;2023-05-02T02:11:35;11.68;;;3.30;;
42616;SDS011;28250;52.320;0.360;2023-05-02T02:14:11;8.40;;;3.45;;
42616;SDS011;28250;52.320;0.360;2023-05-02T02:17:04;6.57;;;2.35;;
42616;SDS011;28250;52.320;0.360;2023-05-02T02:19:39;8.23;;;2.65;;
42616;SDS011;28250;52.320;0.360;2023-05-02T02:22:07;6.38;;;2.40;;
42616;SDS011;28250;52.320;0.360;2023-05-02T02:24:34;9.77;;;2.92;;
42616;SDS011;28250;52.320;0.360;2023-05-02T02:27:03;8.88;;;2.63;;
42616;SDS011;28250;52.320;0.360;2023-05-02T02:29:29;13.48;;;3.65;;
42616;SDS011;28250;52.320;0.360;2023-05-02T02:31:55;8.93;;;2.63;;
42616;SDS011;28250;52.320;0.360;2023-05-02T02:34:21;8.75;;;2.90;;
42616;SDS011;28250;52.320;0.360;2023-05-02T02:36:54;12.40;;;2.55;;
42616;SDS011;28250;52.320;0.360;2023-05-02T02:48:32;9.80;;;2.47;;
42616;SDS011;28250;52.320;0.360;2023-05-02T02:56:38;11.75;;;2.58;;
42616;SDS011;28250;52.320;0.360;2023-05-02T02:59:11;13.93;;;3.65;;
42616;SDS011;28250;52.320;0.360;2023-05-02T03:04:14;8.73;;;2.00;;
42616;SDS011;28250;52.320;0.360;2023-05-02T03:06:42;6.30;;;2.40;;
42616;SDS011;28250;52.320;0.360;2023-05-02T03:09:15;8.20;;;2.45;;
42616;SDS011;28250;52.320;0.360;2023-05-02T03:11:43;9.38;;;2.15;;
42616;SDS011;28250;52.320;0.360;2023-05-02T03:14:12;5.90;;;2.22;;
42616;SDS011;28250;52.320;0.360;2023-05-02T03:16:40;8.45;;;2.28;;
42616;SDS011;28250;52.320;0.360;2023-05-02T03:19:10;11.88;;;2.72;;
42616;SDS011;28250;52.320;0.360;2023-05-02T03:21:37;8.57;;;2.50;;
42616;SDS011;28250;52.320;0.360;2023-05-02T03:24:10;8.13;;;2.10;;
42616;SDS011;28250;52.320;0.360;2023-05-02T03:26:37;9.98;;;2.15;;
42616;SDS011;28250;52.320;0.360;2023-05-02T03:29:05;9.35;;;2.63;;
42616;SDS011;28250;52.320;0.360;2023-05-02T03:31:36;7.18;;;2.53;;
42616;SDS011;28250;52.320;0.360;2023-05-02T03:34:02;8.27;;;1.90;;
42616;SDS011;28250;52.320;0.360;2023-05-02T03:36:29;5.63;;;2.38;;
42616;SDS011;28250;52.320;0.360;2023-05-02T03:38:55;7.13;;;1.80;;
42616;SDS011;28250;52.320;0.360;2023-05-02T03:41:22;10.93;;;2.55;;
42616;SDS011;28250;52.320;0.360;2023-05-02T03:43:55;7.35;;;1.90;;
42616;SDS011;28250;52.320;0.360;2023-05-02T03:46:23;10.27;;;2.42;;
42616;SDS011;28250;52.320;0.360;2023-05-02T03:48:50;7.95;;;2.00;;
42616;SDS011;28250;52.320;0.360;2023-05-02T03:51:16;4.72;;;2.22;;
42616;SDS011;28250;52.320;0.360;2023-05-02T03:53:47;7.78;;;2.03;;
42616;SDS011;28250;52.320;0.360;2023-05-02T03:56:16;7.47;;;2.15;;
42616;SDS011;28250;52.320;0.360;2023-05-02T03:58:48;12.27;;;2.40;;
42616;SDS011;28250;52.320;0.360;2023-05-02T04:01:18;8.63;;;2.72;;
42616;SDS011;28250;52.320;0.360;2023-05-02T04:03:48;3.25;;;2.28;;
42616;SDS011;28250;52.320;0.360;2023-05-02T04:06:18;4.35;;;2.47;;
42616;SDS011;28250;52.320;0.360;2023-05-02T04:08:50;8.85;;;2.47;;
42616;SDS011;28250;52.320;0.360;2023-05-02T04:11:16;11.15;;;2.75;;
42616;SDS011;28250;52.320;0.360;2023-05-02T04:13:42;7.72;;;2.50;;
42616;SDS011;28250;52.320;0.360;2023-05-02T04:16:09;6.65;;;2.08;;
42616;SDS011;28250;52.320;0.360;2023-05-02T04:18:36;3.33;;;2.42;;
42616;SDS011;28250;52.320;0.360;2023-05-02T04:21:06;10.85;;;2.10;;
42616;SDS011;28250;52.320;0.360;2023-05-02T04:23:35;10.70;;;2.60;;
42616;SDS011;28250;52.320;0.360;2023-05-02T04:26:03;4.63;;;2.00;;
42616;SDS011;28250;52.320;0.360;2023-05-02T04:28:42;3.47;;;1.90;;
42616;SDS011;28250;52.320;0.360;2023-05-02T04:31:10;7.03;;;2.20;;
42616;SDS011;28250;52.320;0.360;2023-05-02T04:33:37;8.13;;;2.10;;
42616;SDS011;28250;52.320;0.360;2023-05-02T04:36:03;3.30;;;1.63;;
42616;SDS011;28250;52.320;0.360;2023-05-02T04:38:30;8.30;;;2.47;;
42616;SDS011;28250;52.320;0.360;2023-05-02T04:40:57;6.07;;;2.10;;
42616;SDS011;28250;52.320;0.360;2023-05-02T04:43:31;4.60;;;2.13;;
42616;SDS011;28250;52.320;0.360;2023-05-02T04:46:00;6.75;;;2.00;;
42616;SDS011;28250;52.320;0.360;2023-05-02T04:48:30;8.55;;;2.90;;
42616;SDS011;28250;52.320;0.360;2023-05-02T04:50:56;4.72;;;2.00;;
42616;SDS011;28250;52.320;0.360;2023-05-02T04:53:22;4.20;;;1.60;;
42616;SDS011;28250;52.320;0.360;2023-05-02T04:55:49;8.43;;;1.75;;
42616;SDS011;28250;52.320;0.360;2023-05-02T04:58:15;4.85;;;1.70;;
42616;SDS011;28250;52.320;0.360;2023-05-02T05:00:44;4.38;;;1.80;;
42616;SDS011;28250;52.320;0.360;2023-05-02T05:03:10;4.72;;;1.83;;
42616;SDS011;28250;52.320;0.360;2023-05-02T05:05:36;5.65;;;2.05;;
42616;SDS011;28250;52.320;0.360;2023-05-02T05:08:06;2.50;;;1.60;;
42616;SDS011;28250;52.320;0.360;2023-05-02T05:10:35;3.95;;;1.83;;
42616;SDS011;28250;52.320;0.360;2023-05-02T05:13:02;3.55;;;1.80;;
42616;SDS011;28250;52.320;0.360;2023-05-02T05:17:58;7.90;;;1.92;;
42616;SDS011;28250;52.320;0.360;2023-05-02T05:20:24;3.80;;;1.52;;
42616;SDS011;28250;52.320;0.360;2023-05-02T05:22:54;5.97;;;1.75;;
42616;SDS011;28250;52.320;0.360;2023-05-02T05:25:21;4.53;;;1.70;;
42616;SDS011;28250;52.320;0.360;2023-05-02T05:27:49;3.42;;;1.60;;
42616;SDS011;28250;52.320;0.360;2023-05-02T05:30:16;6.38;;;1.60;;
42616;SDS011;28250;52.320;0.360;2023-05-02T05:32:42;4.43;;;1.50;;
42616;SDS011;28250;52.320;0.360;2023-05-02T05:35:09;5.35;;;1.50;;
42616;SDS011;28250;52.320;0.360;2023-05-02T05:37:36;4.32;;;1.67;;
42616;SDS011;28250;52.320;0.360;2023-05-02T05:40:06;5.47;;;2.05;;
42616;SDS011;28250;52.320;0.360;2023-05-02T05:42:34;5.00;;;1.58;;
42616;SDS011;28250;52.320;0.360;2023-05-02T05:45:05;2.78;;;1.80;;
42616;SDS011;28250;52.320;0.360;2023-05-02T05:47:32;4.18;;;1.60;;
42616;SDS011;28250;52.320;0.360;2023-05-02T05:49:58;4.55;;;1.63;;
42616;SDS011;28250;52.320;0.360;2023-05-02T05:52:29;7.40;;;1.52;;
42616;SDS011;28250;52.320;0.360;2023-05-02T05:54:57;7.30;;;1.70;;
42616;SDS011;28250;52.320;0.360;2023-05-02T05:57:26;4.60;;;2.22;;
42616;SDS011;28250;52.320;0.360;2023-05-02T05:59:53;3.72;;;1.65;;
42616;SDS011;28250;52.320;0.360;2023-05-02T06:02:20;1.88;;;1.60;;
42616;SDS011;28250;52.320;0.360;2023-05-02T06:04:46;7.25;;;2.03;;
42616;SDS011;28250;52.320;0.360;2023-05-02T06:07:14;2.85;;;1.42;;
42616;SDS011;28250;52.320;0.360;2023-05-02T06:09:40;2.72;;;1.55;;
42616;SDS011;28250;52.320;0.360;2023-05-02T06:12:06;4.97;;;1.48;;
42616;SDS011;28250;52.320;0.360;2023-05-02T06:14:33;6.43;;;1.52;;
42616;SDS011;28250;52.320;0.360;2023-05-02T06:16:59;4.25;;;1.70;;
42616;SDS011;28250;52.320;0.360;2023-05-02T06:19:26;4.70;;;2.20;;
42616;SDS011;28250;52.320;0.360;2023-05-02T06:21:52;5.90;;;1.48;;
42616;SDS011;28250;52.320;0.360;2023-05-02T06:24:18;3.50;;;1.67;;
42616;SDS011;28250;52.320;0.360;2023-05-02T06:26:44;4.97;;;1.85;;
42616;SDS011;28250;52.320;0.360;2023-05-02T06:29:10;5.70;;;1.58;;
42616;SDS011;28250;52.320;0.360;2023-05-02T06:31:36;9.00;;;1.63;;
42616;SDS011;28250;52.320;0.360;2023-05-02T06:34:02;4.65;;;1.70;;
42616;SDS011;28250;52.320;0.360;2023-05-02T06:36:28;5.05;;;1.55;;
42616;SDS011;28250;52.320;0.360;2023-05-02T06:38:55;7.05;;;1.42;;
42616;SDS011;28250;52.320;0.360;2023-05-02T06:41:21;5.07;;;2.00;;
42616;SDS011;28250;52.320;0.360;2023-05-02T06:43:47;4.32;;;1.80;;
42616;SDS011;28250;52.320;0.360;2023-05-02T06:46:13;3.17;;;1.58;;
42616;SDS011;28250;52.320;0.360;2023-05-02T06:48:39;3.63;;;1.55;;
42616;SDS011;28250;52.320;0.360;2023-05-02T06:51:05;3.45;;;1.75;;
42616;SDS011;28250;52.320;0.360;2023-05-02T06:53:31;4.00;;;1.80;;
42616;SDS011;28250;52.320;0.360;2023-05-02T06:55:58;4.28;;;1.45;;
42616;SDS011;28250;52.320;0.360;2023-05-02T06:58:24;6.07;;;1.40;;
42616;SDS011;28250;52.320;0.360;2023-05-02T07:00:50;3.67;;;1.42;;
42616;SDS011;28250;52.320;0.360;2023-05-02T07:03:16;3.35;;;1.33;;
42616;SDS011;28250;52.320;0.360;2023-05-02T07:05:42;4.63;;;1.10;;
42616;SDS011;28250;52.320;0.360;2023-05-02T07:08:08;6.40;;;1.73;;
42616;SDS011;28250;52.320;0.360;2023-05-02T07:10:35;5.47;;;1.67;;
42616;SDS011;28250;52.320;0.360;2023-05-02T07:13:01;6.85;;;1.40;;
42616;SDS011;28250;52.320;0.360;2023-05-02T07:15:28;2.80;;;1.27;;
42616;SDS011;28250;52.320;0.360;2023-05-02T07:17:54;6.10;;;1.50;;
42616;SDS011;28250;52.320;0.360;2023-05-02T07:20:19;3.50;;;1.95;;
42616;SDS011;28250;52.320;0.360;2023-05-02T07:22:45;3.25;;;1.40;;
42616;SDS011;28250;52.320;0.360;2023-05-02T07:25:11;4.25;;;1.48;;
42616;SDS011;28250;52.320;0.360;2023-05-02T07:27:37;3.85;;;1.50;;
42616;SDS011;28250;52.320;0.360;2023-05-02T07:30:04;4.22;;;1.30;;
42616;SDS011;28250;52.320;0.360;2023-05-02T07:32:31;3.25;;;1.55;;
42616;SDS011;28250;52.320;0.360;2023-05-02T07:34:57;4.15;;;1.60;;
42616;SDS011;28250;52.320;0.360;2023-05-02T07:37:23;2.90;;;1.42;;
42616;SDS011;28250;52.320;0.360;2023-05-02T07:39:49;4.72;;;1.20;;
42616;SDS011;28250;52.320;0.360;2023-05-02T07:42:15;5.43;;;1.30;;
42616;SDS011;28250;52.320;0.360;2023-05-02T07:44:41;2.85;;;1.55;;
42616;SDS011;28250;52.320;0.360;2023-05-02T07:47:07;5.82;;;2.00;;
42616;SDS011;28250;52.320;0.360;2023-05-02T07:49:34;4.20;;;1.38;;
42616;SDS011;28250;52.320;0.360;2023-05-02T07:52:01;5.35;;;1.50;;
42616;SDS011;28250;52.320;0.360;2023-05-02T07:54:27;3.75;;;1.45;;
42616;SDS011;28250;52.320;0.360;2023-05-02T07:56:54;4.90;;;1.53;;
42616;SDS011;28250;52.320;0.360;2023-05-02T07:59:22;4.90;;;1.38;;
42616;SDS011;28250;52.320;0.360;2023-05-02T08:01:48;3.50;;;1.38;;
42616;SDS011;28250;52.320;0.360;2023-05-02T08:04:14;3.25;;;1.10;;
42616;SDS011;28250;52.320;0.360;2023-05-02T08:06:40;7.60;;;1.90;;
42616;SDS011;28250;52.320;0.360;2023-05-02T08:09:07;2.08;;;1.40;;
42616;SDS011;28250;52.320;0.360;2023-05-02T08:11:33;1.92;;;1.50;;
42616;SDS011;28250;52.320;0.360;2023-05-02T08:13:59;4.80;;;1.55;;
42616;SDS011;28250;52.320;0.360;2023-05-02T08:16:25;1.92;;;1.40;;
42616;SDS011;28250;52.320;0.360;2023-05-02T08:18:51;6.25;;;1.38;;
42616;SDS011;28250;52.320;0.360;2023-05-02T08:21:17;2.53;;;1.23;;
42616;SDS011;28250;52.320;0.360;2023-05-02T08:23:43;2.65;;;1.02;;
42616;SDS011;28250;52.320;0.360;2023-05-02T08:26:10;1.45;;;1.05;;
42616;SDS011;28250;52.320;0.360;2023-05-02T08:28:36;1.38;;;1.27;;
42616;SDS011;28250;52.320;0.360;2023-05-02T08:31:02;4.15;;;1.38;;
42616;SDS011;28250;52.320;0.360;2023-05-02T08:33:28;2.75;;;2.05;;
42616;SDS011;28250;52.320;0.360;2023-05-02T08:35:54;3.60;;;1.48;;
42616;SDS011;28250;52.320;0.360;2023-05-02T08:38:21;4.18;;;1.70;;
42616;SDS011;28250;52.320;0.360;2023-05-02T08:40:47;4.00;;;1.70;;
42616;SDS011;28250;52.320;0.360;2023-05-02T08:43:15;4.95;;;1.85;;
42616;SDS011;28250;52.320;0.360;2023-05-02T08:45:42;5.75;;;2.08;;
42616;SDS011;28250;52.320;0.360;2023-05-02T08:48:10;6.63;;;1.98;;
42616;SDS011;28250;52.320;0.360;2023-05-02T08:50:38;3.60;;;1.80;;
42616;SDS011;28250;52.320;0.360;2023-05-02T08:53:08;5.60;;;1.88;;
42616;SDS011;28250;52.320;0.360;2023-05-02T08:55:37;2.45;;;2.00;;
42616;SDS011;28250;52.320;0.360;2023-05-02T08:58:05;5.38;;;2.30;;
42616;SDS011;28250;52.320;0.360;2023-05-02T09:00:39;4.53;;;2.60;;
42616;SDS011;28250;52.320;0.360;2023-05-02T09:03:25;5.85;;;1.92;;
42616;SDS011;28250;52.320;0.360;2023-05-02T09:06:17;4.65;;;2.10;;
42616;SDS011;28250;52.320;0.360;2023-05-02T09:08:47;3.03;;;2.33;;
42616;SDS011;28250;52.320;0.360;2023-05-02T09:11:16;3.47;;;1.92;;
42616;SDS011;28250;52.320;0.360;2023-05-02T09:13:47;9.57;;;2.33;;
42616;SDS011;28250;52.320;0.360;2023-05-02T09:18:53;3.92;;;1.80;;
42616;SDS011;28250;52.320;0.360;2023-05-02T09:21:26;5.88;;;2.20;;
42616;SDS011;28250;52.320;0.360;2023-05-02T09:24:02;4.82;;;2.08;;
42616;SDS011;28250;52.320;0.360;2023-05-02T09:26:57;4.25;;;1.73;;
42616;SDS011;28250;52.320;0.360;2023-05-02T09:29:28;3.92;;;1.95;;
42616;SDS011;28250;52.320;0.360;2023-05-02T09:32:03;4.60;;;2.10;;
42616;SDS011;28250;52.320;0.360;2023-05-02T09:34:30;3.78;;;2.15;;
42616;SDS011;28250;52.320;0.360;2023-05-02T09:36:57;3.13;;;1.52;;
42616;SDS011;28250;52.320;0.360;2023-05-02T09:39:25;4.15;;;1.52;;
42616;SDS011;28250;52.320;0.360;2023-05-02T09:41:53;3.35;;;1.60;;
42616;SDS011;28250;52.320;0.360;2023-05-02T09:44:24;1.95;;;1.55;;
42616;SDS011;28250;52.320;0.360;2023-05-02T09:46:53;3.17;;;1.38;;
42616;SDS011;28250;52.320;0.360;2023-05-02T09:49:43;3.55;;;1.83;;
42616;SDS011;28250;52.320;0.360;2023-05-02T09:52:10;6.25;;;1.77;;
42616;SDS011;28250;52.320;0.360;2023-05-02T09:54:41;3.65;;;1.80;;
42616;SDS011;28250;52.320;0.360;2023-05-02T09:57:07;2.05;;;1.45;;
42616;SDS011;28250;52.320;0.360;2023-05-02T09:59:35;5.43;;;1.40;;
42616;SDS011;28250;52.320;0.360;2023-05-02T10:02:02;5.80;;;1.80;;
42616;SDS011;28250;52.320;0.360;2023-05-02T10:04:32;3.03;;;1.48;;
42616;SDS011;28250;52.320;0.360;2023-05-02T10:06:59;1.88;;;1.73;;
42616;SDS011;28250;52.320;0.360;2023-05-02T10:09:27;3.38;;;1.30;;
42616;SDS011;28250;52.320;0.360;2023-05-02T10:11:56;2.88;;;1.65;;
42616;SDS011;28250;52.320;0.360;2023-05-02T10:14:29;2.17;;;1.40;;
42616;SDS011;28250;52.320;0.360;2023-05-02T10:17:04;3.03;;;1.50;;
42616;SDS011;28250;52.320;0.360;2023-05-02T10:22:44;4.03;;;1.50;;
42616;SDS011;28250;52.320;0.360;2023-05-02T10:25:12;3.92;;;1.70;;
42616;SDS011;28250;52.320;0.360;2023-05-02T10:27:38;4.80;;;1.77;;
42616;SDS011;28250;52.320;0.360;2023-05-02T10:30:04;4.22;;;1.70;;
42616;SDS011;28250;52.320;0.360;2023-05-02T10:35:04;3.97;;;1.60;;
42616;SDS011;28250;52.320;0.360;2023-05-02T10:37:33;4.30;;;1.77;;
42616;SDS011;28250;52.320;0.360;2023-05-02T10:40:02;3.65;;;1.90;;
42616;SDS011;28250;52.320;0.360;2023-05-02T10:42:30;4.78;;;1.60;;
42616;SDS011;28250;52.320;0.360;2023-05-02T10:45:03;4.60;;;1.80;;
42616;SDS011;28250;52.320;0.360;2023-05-02T10:47:32;6.20;;;2.05;;
42616;SDS011;28250;52.320;0.360;2023-05-02T10:50:00;3.85;;;1.58;;
42616;SDS011;28250;52.320;0.360;2023-05-02T10:52:30;2.30;;;1.60;;
42616;SDS011;28250;52.320;0.360;2023-05-02T10:58:20;2.00;;;1.63;;
42616;SDS011;28250;52.320;0.360;2023-05-02T11:00:46;2.50;;;1.90;;
42616;SDS011;28250;52.320;0.360;2023-05-02T11:03:13;3.03;;;1.58;;
42616;SDS011;28250;52.320;0.360;2023-05-02T11:08:38;1.90;;;1.13;;
42616;SDS011;28250;52.320;0.360;2023-05-02T11:14:07;2.90;;;1.95;;
42616;SDS011;28250;52.320;0.360;2023-05-02T11:24:44;3.17;;;1.60;;
42616;SDS011;28250;52.320;0.360;2023-05-02T11:29:56;5.13;;;1.60;;
42616;SDS011;28250;52.320;0.360;2023-05-02T11:32:24;2.38;;;1.35;;
42616;SDS011;28250;52.320;0.360;2023-05-02T11:35:18;5.43;;;1.75;;
42616;SDS011;28250;52.320;0.360;2023-05-02T11:37:52;1.45;;;1.30;;
42616;SDS011;28250;52.320;0.360;2023-05-02T11:40:26;4.30;;;1.73;;
42616;SDS011;28250;52.320;0.360;2023-05-02T11:42:53;2.75;;;1.52;;
42616;SDS011;28250;52.320;0.360;2023-05-02T11:45:20;3.67;;;1.60;;
42616;SDS011;28250;52.320;0.360;2023-05-02T11:50:15;5.55;;;1.30;;
42616;SDS011;28250;52.320;0.360;2023-05-02T11:52:43;3.88;;;1.52;;
42616;SDS011;28250;52.320;0.360;2023-05-02T11:55:11;4.40;;;2.55;;
42616;SDS011;28250;52.320;0.360;2023-05-02T11:57:40;3.58;;;1.55;;
42616;SDS011;28250;52.320;0.360;2023-05-02T12:00:07;4.85;;;1.70;;
42616;SDS011;28250;52.320;0.360;2023-05-02T12:02:38;2.83;;;1.13;;
42616;SDS011;28250;52.320;0.360;2023-05-02T12:05:07;4.60;;;1.40;;
42616;SDS011;28250;52.320;0.360;2023-05-02T12:07:38;3.38;;;1.20;;
42616;SDS011;28250;52.320;0.360;2023-05-02T12:10:13;2.90;;;1.48;;
42616;SDS011;28250;52.320;0.360;2023-05-02T12:12:41;3.40;;;1.20;;
42616;SDS011;28250;52.320;0.360;2023-05-02T12:15:09;1.55;;;1.45;;
42616;SDS011;28250;52.320;0.360;2023-05-02T12:17:38;2.08;;;1.30;;
42616;SDS011;28250;52.320;0.360;2023-05-02T12:20:10;3.33;;;1.23;;
42616;SDS011;28250;52.320;0.360;2023-05-02T12:22:37;3.95;;;2.88;;
42616;SDS011;28250;52.320;0.360;2023-05-02T12:25:03;4.65;;;1.50;;
42616;SDS011;28250;52.320;0.360;2023-05-02T12:27:30;2.17;;;1.50;;
42616;SDS011;28250;52.320;0.360;2023-05-02T12:30:00;2.75;;;1.60;;
42616;SDS011;28250;52.320;0.360;2023-05-02T12:32:27;3.28;;;1.42;;
42616;SDS011;28250;52.320;0.360;2023-05-02T12:34:55;2.70;;;1.40;;
42616;SDS011;28250;52.320;0.360;2023-05-02T12:37:26;2.50;;;1.50;;
42616;SDS011;28250;52.320;0.360;2023-05-02T12:39:53;3.65;;;1.08;;
42616;SDS011;28250;52.320;0.360;2023-05-02T12:42:20;4.90;;;1.85;;
42616;SDS011;28250;52.320;0.360;2023-05-02T12:44:49;4.03;;;1.65;;
42616;SDS011;28250;52.320;0.360;2023-05-02T12:47:16;2.78;;;1.83;;
42616;SDS011;28250;52.320;0.360;2023-05-02T12:52:15;3.83;;;1.63;;
42616;SDS011;28250;52.320;0.360;2023-05-02T12:54:42;2.13;;;1.70;;
42616;SDS011;28250;52.320;0.360;2023-05-02T12:57:09;5.15;;;1.92;;
42616;SDS011;28250;52.320;0.360;2023-05-02T12:59:35;2.80;;;1.67;;
42616;SDS011;28250;52.320;0.360;2023-05-02T13:02:02;3.78;;;1.80;;
42616;SDS011;28250;52.320;0.360;2023-05-02T13:04:35;2.72;;;1.85;;
42616;SDS011;28250;52.320;0.360;2023-05-02T13:07:05;5.18;;;2.05;;
42616;SDS011;28250;52.320;0.360;2023-05-02T13:09:32;3.80;;;1.90;;
42616;SDS011;28250;52.320;0.360;2023-05-02T13:11:58;3.05;;;1.63;;
42616;SDS011;28250;52.320;0.360;2023-05-02T13:14:25;3.28;;;1.90;;
42616;SDS011;28250;52.320;0.360;2023-05-02T13:16:51;3.22;;;2.20;;
42616;SDS011;28250;52.320;0.360;2023-05-02T13:19:20;3.55;;;2.05;;
42616;SDS011;28250;52.320;0.360;2023-05-02T13:21:46;3.15;;;1.63;;
42616;SDS011;28250;52.320;0.360;2023-05-02T13:24:13;5.53;;;1.87;;
42616;SDS011;28250;52.320;0.360;2023-05-02T13:26:41;5.22;;;1.77;;
42616;SDS011;28250;52.320;0.360;2023-05-02T13:29:08;4.77;;;1.53;;
42616;SDS011;28250;52.320;0.360;2023-05-02T13:31:36;2.13;;;1.45;;
42616;SDS011;28250;52.320;0.360;2023-05-02T13:34:02;3.78;;;1.70;;
42616;SDS011;28250;52.320;0.360;2023-05-02T13:36:29;5.75;;;1.60;;
42616;SDS011;28250;52.320;0.360;2023-05-02T13:38:55;3.25;;;1.85;;
42616;SDS011;28250;52.320;0.360;2023-05-02T13:41:22;3.28;;;1.48;;
42616;SDS011;28250;52.320;0.360;2023-05-02T13:43:48;6.95;;;1.90;;
42616;SDS011;28250;52.320;0.360;2023-05-02T13:46:15;2.90;;;1.90;;
42616;SDS011;28250;52.320;0.360;2023-05-02T13:48:41;4.80;;;1.90;;
42616;SDS011;28250;52.320;0.360;2023-05-02T13:51:07;4.28;;;2.40;;
42616;SDS011;28250;52.320;0.360;2023-05-02T13:53:33;3.92;;;1.67;;
42616;SDS011;28250;52.320;0.360;2023-05-02T13:56:00;5.10;;;2.13;;
42616;SDS011;28250;52.320;0.360;2023-05-02T13:58:26;4.70;;;2.08;;
42616;SDS011;28250;52.320;0.360;2023-05-02T14:00:52;3.30;;;1.92;;
42616;SDS011;28250;52.320;0.360;2023-05-02T14:03:18;3.55;;;1.92;;
42616;SDS011;28250;52.320;0.360;2023-05-02T14:05:44;3.53;;;1.92;;
42616;SDS011;28250;52.320;0.360;2023-05-02T14:08:10;2.80;;;1.80;;
42616;SDS011;28250;52.320;0.360;2023-05-02T14:10:37;3.28;;;2.22;;
42616;SDS011;28250;52.320;0.360;2023-05-02T14:13:03;6.07;;;1.90;;
42616;SDS011;28250;52.320;0.360;2023-05-02T14:15:29;2.92;;;2.20;;
42616;SDS011;28250;52.320;0.360;2023-05-02T14:17:56;4.30;;;2.30;;
42616;SDS011;28250;52.320;0.360;2023-05-02T14:20:22;5.35;;;2.17;;
42616;SDS011;28250;52.320;0.360;2023-05-02T14:22:49;3.95;;;2.03;;
42616;SDS011;28250;52.320;0.360;2023-05-02T14:25:15;4.97;;;2.25;;
42616;SDS011;28250;52.320;0.360;2023-05-02T14:27:44;4.88;;;2.20;;
42616;SDS011;28250;52.320;0.360;2023-05-02T14:30:11;3.25;;;2.17;;
42616;SDS011;28250;52.320;0.360;2023-05-02T14:32:37;4.00;;;1.95;;
42616;SDS011;28250;52.320;0.360;2023-05-02T14:35:03;4.72;;;2.33;;
42616;SDS011;28250;52.320;0.360;2023-05-02T14:37:30;4.63;;;2.15;;
42616;SDS011;28250;52.320;0.360;2023-05-02T14:39:56;5.03;;;2.17;;
42616;SDS011;28250;52.320;0.360;2023-05-02T14:42:23;6.60;;;2.15;;
42616;SDS011;28250;52.320;0.360;2023-05-02T14:44:50;5.93;;;2.42;;
42616;SDS011;28250;52.320;0.360;2023-05-02T14:47:16;5.43;;;2.10;;
42616;SDS011;28250;52.320;0.360;2023-05-02T14:49:42;3.38;;;1.98;;
42616;SDS011;28250;52.320;0.360;2023-05-02T14:52:08;6.18;;;2.28;;
42616;SDS011;28250;52.320;0.360;2023-05-02T14:54:34;4.53;;;2.20;;
42616;SDS011;28250;52.320;0.360;2023-05-02T14:57:01;4.38;;;2.20;;
42616;SDS011;28250;52.320;0.360;2023-05-02T14:59:28;2.92;;;2.30;;
42616;SDS011;28250;52.320;0.360;2023-05-02T15:01:55;4.50;;;2.30;;
42616;SDS011;28250;52.320;0.360;2023-05-02T15:04:21;5.68;;;2.15;;
42616;SDS011;28250;52.320;0.360;2023-05-02T15:06:50;5.55;;;2.30;;
42616;SDS011;28250;52.320;0.360;2023-05-02T15:09:18;3.75;;;2.05;;
42616;SDS011;28250;52.320;0.360;2023-05-02T15:11:44;4.63;;;2.17;;
42616;SDS011;28250;52.320;0.360;2023-05-02T15:14:10;7.05;;;2.20;;
42616;SDS011;28250;52.320;0.360;2023-05-02T15:16:36;6.22;;;2.63;;
42616;SDS011;28250;52.320;0.360;2023-05-02T15:19:03;4.05;;;2.38;;
42616;SDS011;28250;52.320;0.360;2023-05-02T15:21:29;3.65;;;2.13;;
42616;SDS011;28250;52.320;0.360;2023-05-02T15:23:56;4.72;;;2.40;;
42616;SDS011;28250;52.320;0.360;2023-05-02T15:26:22;3.80;;;2.67;;
42616;SDS011;28250;52.320;0.360;2023-05-02T15:31:16;8.23;;;2.70;;
42616;SDS011;28250;52.320;0.360;2023-05-02T15:33:42;5.32;;;2.75;;
42616;SDS011;28250;52.320;0.360;2023-05-02T15:36:08;5.95;;;2.60;;
42616;SDS011;28250;52.320;0.360;2023-05-02T15:38:34;2.63;;;2.13;;
42616;SDS011;28250;52.320;0.360;2023-05-02T15:41:03;7.82;;;2.60;;
42616;SDS011;28250;52.320;0.360;2023-05-02T15:43:31;5.13;;;2.28;;
42616;SDS011;28250;52.320;0.360;2023-05-02T15:45:58;5.15;;;2.20;;
42616;SDS011;28250;52.320;0.360;2023-05-02T15:48:28;2.30;;;2.10;;
42616;SDS011;28250;52.320;0.360;2023-05-02T15:50:55;2.63;;;2.10;;
42616;SDS011;28250;52.320;0.360;2023-05-02T15:53:21;7.22;;;2.10;;
42616;SDS011;28250;52.320;0.360;2023-05-02T15:55:48;12.05;;;2.38;;
42616;SDS011;28250;52.320;0.360;2023-05-02T15:58:16;2.72;;;2.10;;
42616;SDS011;28250;52.320;0.360;2023-05-02T16:00:43;5.53;;;2.50;;
42616;SDS011;28250;52.320;0.360;2023-05-02T16:05:36;5.40;;;2.10;;